sensor_id;sensor_type;location;lat;lon;timestamp;temperature;humidity
7686;DHT22;3885;51.474;-2.576;2023-07-31T00:01:58;17.10;99.90
7686;DHT22;3885;51.474;-2.576;2023-07-31T00:04:25;17.10;99.90
7686;DHT22;3885;51.474;-2.576;2023-07-31T00:06:52;17.10;99.90
7686;DHT22;3885;51.474;-2.576;2023-07-31T00:09:21;17.10;99.90
7686;DHT22;3885;51.474;-2.576;2023-07-31T00:11:47;17.10;99.90
7686;DHT22;3885;51.474;-2.576;2023-07-31T00:14:14;17.10;99.90
7686;DHT22;3885;51.474;-2.576;2023-07-31T00:16:41;17.10;99.90
7686;DHT22;3885;51.474;-2.576;2023-07-31T00:19:08;17.10;99.90
7686;DHT22;3885;51.474;-2.576;2023-07-31T00:21:35;17.10;99.90
7686;DHT22;3885;51.474;-2.576;2023-07-31T00:24:02;17.10;99.90
7686;DHT22;3885;51.474;-2.576;2023-07-31T00:26:30;17.10;99.90
7686;DHT22;3885;51.474;-2.576;2023-07-31T00:28:57;17.10;99.90
7686;DHT22;3885;51.474;-2.576;2023-07-31T00:31:24;17.10;99.90
7686;DHT22;3885;51.474;-2.576;2023-07-31T00:33:51;17.10;99.90
7686;DHT22;3885;51.474;-2.576;2023-07-31T00:36:18;17.10;99.90
7686;DHT22;3885;51.474;-2.576;2023-07-31T00:38:45;17.10;99.90
7686;DHT22;3885;51.474;-2.576;2023-07-31T00:41:12;17.10;99.90
7686;DHT22;3885;51.474;-2.576;2023-07-31T00:43:40;17.10;99.90
7686;DHT22;3885;51.474;-2.576;2023-07-31T00:46:07;17.10;99.90
7686;DHT22;3885;51.474;-2.576;2023-07-31T00:48:34;17.10;99.90
7686;DHT22;3885;51.474;-2.576;2023-07-31T00:51:01;17.10;99.90
7686;DHT22;3885;51.474;-2.576;2023-07-31T00:53:28;17.20;99.90
7686;DHT22;3885;51.474;-2.576;2023-07-31T00:55:56;17.20;99.90
7686;DHT22;3885;51.474;-2.576;2023-07-31T00:58:23;17.20;99.90
7686;DHT22;3885;51.474;-2.576;2023-07-31T01:00:51;17.10;99.90
7686;DHT22;3885;51.474;-2.576;2023-07-31T01:03:18;17.10;99.90
7686;DHT22;3885;51.474;-2.576;2023-07-31T01:05:52;17.10;99.90
7686;DHT22;3885;51.474;-2.576;2023-07-31T01:08:27;17.20;99.90
7686;DHT22;3885;51.474;-2.576;2023-07-31T01:11:02;17.20;99.90
7686;DHT22;3885;51.474;-2.576;2023-07-31T01:13:30;17.20;99.90
7686;DHT22;3885;51.474;-2.576;2023-07-31T01:15:59;17.20;99.90
7686;DHT22;3885;51.474;-2.576;2023-07-31T01:18:26;17.20;99.90
7686;DHT22;3885;51.474;-2.576;2023-07-31T01:26:51;17.20;99.90
7686;DHT22;3885;51.474;-2.576;2023-07-31T01:29:25;17.20;99.90
7686;DHT22;3885;51.474;-2.576;2023-07-31T01:31:53;17.20;99.90
7686;DHT22;3885;51.474;-2.576;2023-07-31T01:34:22;17.20;99.90
7686;DHT22;3885;51.474;-2.576;2023-07-31T01:36:49;17.30;99.90
7686;DHT22;3885;51.474;-2.576;2023-07-31T01:39:16;17.30;99.90
7686;DHT22;3885;51.474;-2.576;2023-07-31T01:41:43;17.30;99.90
7686;DHT22;3885;51.474;-2.576;2023-07-31T01:44:11;17.30;99.90
7686;DHT22;3885;51.474;-2.576;2023-07-31T01:46:38;17.30;99.90
7686;DHT22;3885;51.474;-2.576;2023-07-31T01:49:05;17.30;99.90
7686;DHT22;3885;51.474;-2.576;2023-07-31T01:51:32;17.30;99.90
7686;DHT22;3885;51.474;-2.576;2023-07-31T01:53:59;17.30;99.90
7686;DHT22;3885;51.474;-2.576;2023-07-31T01:56:26;17.30;99.90
7686;DHT22;3885;51.474;-2.576;2023-07-31T01:58:54;17.30;99.90
7686;DHT22;3885;51.474;-2.576;2023-07-31T02:01:22;17.30;99.90
7686;DHT22;3885;51.474;-2.576;2023-07-31T02:03:49;17.30;99.90
7686;DHT22;3885;51.474;-2.576;2023-07-31T02:06:16;17.40;99.90
7686;DHT22;3885;51.474;-2.576;2023-07-31T02:08:43;17.40;99.90
7686;DHT22;3885;51.474;-2.576;2023-07-31T02:11:09;17.50;99.90
7686;DHT22;3885;51.474;-2.576;2023-07-31T02:13:36;17.50;99.90
7686;DHT22;3885;51.474;-2.576;2023-07-31T02:16:03;17.50;99.90
7686;DHT22;3885;51.474;-2.576;2023-07-31T02:18:32;17.50;99.90
7686;DHT22;3885;51.474;-2.576;2023-07-31T02:20:59;17.60;99.90
7686;DHT22;3885;51.474;-2.576;2023-07-31T02:23:25;17.60;99.90
7686;DHT22;3885;51.474;-2.576;2023-07-31T02:25:52;17.60;99.90
7686;DHT22;3885;51.474;-2.576;2023-07-31T02:28:19;17.60;99.90
7686;DHT22;3885;51.474;-2.576;2023-07-31T02:30:46;17.60;99.90
7686;DHT22;3885;51.474;-2.576;2023-07-31T02:33:15;17.60;99.90
7686;DHT22;3885;51.474;-2.576;2023-07-31T02:35:44;17.60;99.90
7686;DHT22;3885;51.474;-2.576;2023-07-31T02:38:10;17.60;99.90
7686;DHT22;3885;51.474;-2.576;2023-07-31T02:40:38;17.60;99.90
7686;DHT22;3885;51.474;-2.576;2023-07-31T02:45:32;17.50;99.90
7686;DHT22;3885;51.474;-2.576;2023-07-31T02:47:59;17.50;99.90
7686;DHT22;3885;51.474;-2.576;2023-07-31T02:50:26;17.50;99.90
7686;DHT22;3885;51.474;-2.576;2023-07-31T02:52:55;17.50;99.90
7686;DHT22;3885;51.474;-2.576;2023-07-31T02:55:22;17.40;99.90
7686;DHT22;3885;51.474;-2.576;2023-07-31T02:57:49;17.40;99.90
7686;DHT22;3885;51.474;-2.576;2023-07-31T03:00:18;17.40;99.90
7686;DHT22;3885;51.474;-2.576;2023-07-31T03:02:44;17.40;99.90
7686;DHT22;3885;51.474;-2.576;2023-07-31T03:05:11;17.40;99.90
7686;DHT22;3885;51.474;-2.576;2023-07-31T03:07:38;17.40;99.90
7686;DHT22;3885;51.474;-2.576;2023-07-31T03:10:08;17.40;99.90
7686;DHT22;3885;51.474;-2.576;2023-07-31T03:12:35;17.40;99.90
7686;DHT22;3885;51.474;-2.576;2023-07-31T03:15:01;17.40;99.90
7686;DHT22;3885;51.474;-2.576;2023-07-31T03:17:28;17.50;99.90
7686;DHT22;3885;51.474;-2.576;2023-07-31T03:19:55;17.50;99.90
7686;DHT22;3885;51.474;-2.576;2023-07-31T03:22:22;17.50;99.90
7686;DHT22;3885;51.474;-2.576;2023-07-31T03:27:18;17.40;99.90
7686;DHT22;3885;51.474;-2.576;2023-07-31T03:29:45;17.40;99.90
7686;DHT22;3885;51.474;-2.576;2023-07-31T03:32:12;17.40;99.90
7686;DHT22;3885;51.474;-2.576;2023-07-31T03:34:39;17.40;99.90
7686;DHT22;3885;51.474;-2.576;2023-07-31T03:37:06;17.40;99.90
7686;DHT22;3885;51.474;-2.576;2023-07-31T03:39:34;17.40;99.90
7686;DHT22;3885;51.474;-2.576;2023-07-31T03:42:01;17.40;99.90
7686;DHT22;3885;51.474;-2.576;2023-07-31T03:44:30;17.30;99.90
7686;DHT22;3885;51.474;-2.576;2023-07-31T03:46:57;17.30;99.90
7686;DHT22;3885;51.474;-2.576;2023-07-31T03:49:23;17.20;99.90
7686;DHT22;3885;51.474;-2.576;2023-07-31T03:51:50;17.20;99.90
7686;DHT22;3885;51.474;-2.576;2023-07-31T03:54:17;17.20;99.90
7686;DHT22;3885;51.474;-2.576;2023-07-31T03:56:44;17.20;99.90
7686;DHT22;3885;51.474;-2.576;2023-07-31T03:59:11;17.20;99.90
7686;DHT22;3885;51.474;-2.576;2023-07-31T04:01:39;17.10;99.90
7686;DHT22;3885;51.474;-2.576;2023-07-31T04:04:06;17.10;99.90
7686;DHT22;3885;51.474;-2.576;2023-07-31T04:06:33;17.10;99.90
7686;DHT22;3885;51.474;-2.576;2023-07-31T04:09:00;17.10;99.90
7686;DHT22;3885;51.474;-2.576;2023-07-31T04:11:27;17.10;99.90
7686;DHT22;3885;51.474;-2.576;2023-07-31T04:13:54;17.10;99.90
7686;DHT22;3885;51.474;-2.576;2023-07-31T04:16:21;17.10;99.90
7686;DHT22;3885;51.474;-2.576;2023-07-31T04:18:49;17.10;99.90
7686;DHT22;3885;51.474;-2.576;2023-07-31T04:21:16;17.10;99.90
7686;DHT22;3885;51.474;-2.576;2023-07-31T04:23:43;17.10;99.90
7686;DHT22;3885;51.474;-2.576;2023-07-31T04:26:10;17.00;99.90
7686;DHT22;3885;51.474;-2.576;2023-07-31T04:28:37;17.10;99.90
7686;DHT22;3885;51.474;-2.576;2023-07-31T04:31:03;17.00;99.90
7686;DHT22;3885;51.474;-2.576;2023-07-31T04:33:30;17.10;99.90
7686;DHT22;3885;51.474;-2.576;2023-07-31T04:36:00;17.10;99.90
7686;DHT22;3885;51.474;-2.576;2023-07-31T04:38:27;17.10;99.90
7686;DHT22;3885;51.474;-2.576;2023-07-31T04:40:54;17.10;99.90
7686;DHT22;3885;51.474;-2.576;2023-07-31T04:43:21;17.10;99.90
7686;DHT22;3885;51.474;-2.576;2023-07-31T04:45:48;17.10;99.90
7686;DHT22;3885;51.474;-2.576;2023-07-31T04:48:15;17.10;99.90
7686;DHT22;3885;51.474;-2.576;2023-07-31T04:50:42;17.10;99.90
7686;DHT22;3885;51.474;-2.576;2023-07-31T04:53:11;17.00;99.90
7686;DHT22;3885;51.474;-2.576;2023-07-31T04:55:38;17.00;99.90
7686;DHT22;3885;51.474;-2.576;2023-07-31T04:58:05;17.10;99.90
7686;DHT22;3885;51.474;-2.576;2023-07-31T05:00:32;17.00;99.90
7686;DHT22;3885;51.474;-2.576;2023-07-31T05:02:59;17.10;99.90
7686;DHT22;3885;51.474;-2.576;2023-07-31T05:05:26;17.10;99.90
7686;DHT22;3885;51.474;-2.576;2023-07-31T05:07:52;17.10;99.90
7686;DHT22;3885;51.474;-2.576;2023-07-31T05:10:21;17.10;99.90
7686;DHT22;3885;51.474;-2.576;2023-07-31T05:12:48;17.10;99.90
7686;DHT22;3885;51.474;-2.576;2023-07-31T05:15:15;17.10;99.90
7686;DHT22;3885;51.474;-2.576;2023-07-31T05:17:42;17.10;99.90
7686;DHT22;3885;51.474;-2.576;2023-07-31T05:20:09;17.10;99.90
7686;DHT22;3885;51.474;-2.576;2023-07-31T05:22:36;17.10;99.90
7686;DHT22;3885;51.474;-2.576;2023-07-31T05:25:03;17.10;99.90
7686;DHT22;3885;51.474;-2.576;2023-07-31T05:27:32;17.20;99.90
7686;DHT22;3885;51.474;-2.576;2023-07-31T05:29:59;17.10;99.90
7686;DHT22;3885;51.474;-2.576;2023-07-31T05:32:26;17.10;99.90
7686;DHT22;3885;51.474;-2.576;2023-07-31T05:34:53;17.10;99.90
7686;DHT22;3885;51.474;-2.576;2023-07-31T05:37:20;17.10;99.90
7686;DHT22;3885;51.474;-2.576;2023-07-31T05:39:47;17.10;99.90
7686;DHT22;3885;51.474;-2.576;2023-07-31T05:42:14;17.10;99.90
7686;DHT22;3885;51.474;-2.576;2023-07-31T05:44:42;17.10;99.90
7686;DHT22;3885;51.474;-2.576;2023-07-31T05:47:09;17.10;99.90
7686;DHT22;3885;51.474;-2.576;2023-07-31T05:49:36;17.10;99.90
7686;DHT22;3885;51.474;-2.576;2023-07-31T05:52:04;17.10;99.90
7686;DHT22;3885;51.474;-2.576;2023-07-31T05:54:31;17.10;99.90
7686;DHT22;3885;51.474;-2.576;2023-07-31T05:56:59;17.10;99.90
7686;DHT22;3885;51.474;-2.576;2023-07-31T05:59:26;17.20;99.90
7686;DHT22;3885;51.474;-2.576;2023-07-31T06:01:54;17.10;99.90
7686;DHT22;3885;51.474;-2.576;2023-07-31T06:04:21;17.20;99.90
7686;DHT22;3885;51.474;-2.576;2023-07-31T06:06:51;17.20;99.90
7686;DHT22;3885;51.474;-2.576;2023-07-31T06:09:17;17.20;99.90
7686;DHT22;3885;51.474;-2.576;2023-07-31T06:11:45;17.20;99.90
7686;DHT22;3885;51.474;-2.576;2023-07-31T06:14:12;17.30;99.90
7686;DHT22;3885;51.474;-2.576;2023-07-31T06:16:39;17.30;99.90
7686;DHT22;3885;51.474;-2.576;2023-07-31T06:19:08;17.40;99.90
7686;DHT22;3885;51.474;-2.576;2023-07-31T06:26:30;17.30;99.90
7686;DHT22;3885;51.474;-2.576;2023-07-31T06:28:57;17.30;99.90
7686;DHT22;3885;51.474;-2.576;2023-07-31T06:31:24;17.30;99.90
7686;DHT22;3885;51.474;-2.576;2023-07-31T06:33:51;17.20;99.90
7686;DHT22;3885;51.474;-2.576;2023-07-31T06:36:20;17.30;99.90
7686;DHT22;3885;51.474;-2.576;2023-07-31T06:38:47;17.30;99.90
7686;DHT22;3885;51.474;-2.576;2023-07-31T06:41:13;17.30;99.90
7686;DHT22;3885;51.474;-2.576;2023-07-31T06:43:40;17.30;99.90
7686;DHT22;3885;51.474;-2.576;2023-07-31T06:46:07;17.40;99.90
7686;DHT22;3885;51.474;-2.576;2023-07-31T06:48:34;17.40;99.90
7686;DHT22;3885;51.474;-2.576;2023-07-31T06:51:02;17.50;99.90
7686;DHT22;3885;51.474;-2.576;2023-07-31T06:53:30;17.50;99.90
7686;DHT22;3885;51.474;-2.576;2023-07-31T06:55:57;17.60;99.90
7686;DHT22;3885;51.474;-2.576;2023-07-31T06:58:24;17.60;99.90
7686;DHT22;3885;51.474;-2.576;2023-07-31T07:00:51;17.70;99.90
7686;DHT22;3885;51.474;-2.576;2023-07-31T07:03:18;17.90;99.90
7686;DHT22;3885;51.474;-2.576;2023-07-31T07:05:46;17.90;99.90
7686;DHT22;3885;51.474;-2.576;2023-07-31T07:08:13;17.90;99.90
7686;DHT22;3885;51.474;-2.576;2023-07-31T07:10:41;18.00;99.90
7686;DHT22;3885;51.474;-2.576;2023-07-31T07:13:08;18.10;99.90
7686;DHT22;3885;51.474;-2.576;2023-07-31T07:15:35;18.10;99.90
7686;DHT22;3885;51.474;-2.576;2023-07-31T07:18:02;18.20;99.90
7686;DHT22;3885;51.474;-2.576;2023-07-31T07:20:30;18.20;99.90
7686;DHT22;3885;51.474;-2.576;2023-07-31T07:22:56;18.20;99.90
7686;DHT22;3885;51.474;-2.576;2023-07-31T07:25:24;18.10;99.90
7686;DHT22;3885;51.474;-2.576;2023-07-31T07:27:52;18.10;99.90
7686;DHT22;3885;51.474;-2.576;2023-07-31T07:30:19;18.20;99.90
7686;DHT22;3885;51.474;-2.576;2023-07-31T07:32:46;18.10;99.90
7686;DHT22;3885;51.474;-2.576;2023-07-31T07:35:13;18.10;99.90
7686;DHT22;3885;51.474;-2.576;2023-07-31T07:37:40;18.10;99.90
7686;DHT22;3885;51.474;-2.576;2023-07-31T07:40:08;18.20;99.90
7686;DHT22;3885;51.474;-2.576;2023-07-31T07:42:35;18.30;99.90
7686;DHT22;3885;51.474;-2.576;2023-07-31T07:45:05;18.40;99.90
7686;DHT22;3885;51.474;-2.576;2023-07-31T07:47:32;18.50;99.90
7686;DHT22;3885;51.474;-2.576;2023-07-31T07:49:58;18.50;99.90
7686;DHT22;3885;51.474;-2.576;2023-07-31T07:52:25;18.50;99.90
7686;DHT22;3885;51.474;-2.576;2023-07-31T07:54:52;18.50;99.90
7686;DHT22;3885;51.474;-2.576;2023-07-31T07:57:19;18.40;99.90
7686;DHT22;3885;51.474;-2.576;2023-07-31T07:59:46;18.40;99.90
7686;DHT22;3885;51.474;-2.576;2023-07-31T08:02:14;18.40;99.90
7686;DHT22;3885;51.474;-2.576;2023-07-31T08:04:41;18.30;99.90
7686;DHT22;3885;51.474;-2.576;2023-07-31T08:07:10;18.30;99.90
7686;DHT22;3885;51.474;-2.576;2023-07-31T08:09:37;18.20;99.90
7686;DHT22;3885;51.474;-2.576;2023-07-31T08:12:05;18.20;99.90
7686;DHT22;3885;51.474;-2.576;2023-07-31T08:14:32;18.20;99.90
7686;DHT22;3885;51.474;-2.576;2023-07-31T08:16:59;18.10;99.90
7686;DHT22;3885;51.474;-2.576;2023-07-31T08:19:28;18.10;99.90
7686;DHT22;3885;51.474;-2.576;2023-07-31T08:21:55;18.10;99.90
7686;DHT22;3885;51.474;-2.576;2023-07-31T08:24:22;18.20;99.90
7686;DHT22;3885;51.474;-2.576;2023-07-31T08:26:49;18.20;99.90
7686;DHT22;3885;51.474;-2.576;2023-07-31T08:29:16;18.20;99.90
7686;DHT22;3885;51.474;-2.576;2023-07-31T08:31:42;18.30;99.90
7686;DHT22;3885;51.474;-2.576;2023-07-31T08:34:09;18.30;99.90
7686;DHT22;3885;51.474;-2.576;2023-07-31T08:36:38;18.30;99.90
7686;DHT22;3885;51.474;-2.576;2023-07-31T08:39:05;18.50;99.90
7686;DHT22;3885;51.474;-2.576;2023-07-31T08:41:32;18.60;99.90
7686;DHT22;3885;51.474;-2.576;2023-07-31T08:44:04;18.70;99.90
7686;DHT22;3885;51.474;-2.576;2023-07-31T08:46:31;18.60;99.90
7686;DHT22;3885;51.474;-2.576;2023-07-31T08:48:59;18.70;99.90
7686;DHT22;3885;51.474;-2.576;2023-07-31T08:51:26;18.60;99.90
7686;DHT22;3885;51.474;-2.576;2023-07-31T08:53:55;18.60;99.90
7686;DHT22;3885;51.474;-2.576;2023-07-31T08:56:23;18.50;99.90
7686;DHT22;3885;51.474;-2.576;2023-07-31T08:58:53;18.60;99.90
7686;DHT22;3885;51.474;-2.576;2023-07-31T09:01:21;18.60;99.90
7686;DHT22;3885;51.474;-2.576;2023-07-31T09:03:49;18.70;99.90
7686;DHT22;3885;51.474;-2.576;2023-07-31T09:06:19;18.80;99.90
7686;DHT22;3885;51.474;-2.576;2023-07-31T09:08:48;18.80;99.90
7686;DHT22;3885;51.474;-2.576;2023-07-31T09:11:17;18.90;99.90
7686;DHT22;3885;51.474;-2.576;2023-07-31T09:13:46;18.90;99.90
7686;DHT22;3885;51.474;-2.576;2023-07-31T09:16:13;18.70;99.90
7686;DHT22;3885;51.474;-2.576;2023-07-31T09:18:53;18.80;99.90
7686;DHT22;3885;51.474;-2.576;2023-07-31T09:21:22;18.70;99.90
7686;DHT22;3885;51.474;-2.576;2023-07-31T09:23:50;18.50;99.90
7686;DHT22;3885;51.474;-2.576;2023-07-31T09:26:30;18.40;99.90
7686;DHT22;3885;51.474;-2.576;2023-07-31T09:28:57;18.20;99.90
7686;DHT22;3885;51.474;-2.576;2023-07-31T09:31:38;18.20;99.90
7686;DHT22;3885;51.474;-2.576;2023-07-31T09:34:06;18.20;99.90
7686;DHT22;3885;51.474;-2.576;2023-07-31T09:36:38;18.20;99.90
7686;DHT22;3885;51.474;-2.576;2023-07-31T09:39:09;18.30;99.90
7686;DHT22;3885;51.474;-2.576;2023-07-31T09:41:38;18.40;99.90
7686;DHT22;3885;51.474;-2.576;2023-07-31T09:44:05;18.40;99.90
7686;DHT22;3885;51.474;-2.576;2023-07-31T09:46:35;18.60;99.90
7686;DHT22;3885;51.474;-2.576;2023-07-31T09:49:09;18.80;99.90
7686;DHT22;3885;51.474;-2.576;2023-07-31T09:51:36;18.80;99.90
7686;DHT22;3885;51.474;-2.576;2023-07-31T09:54:09;19.00;99.90
7686;DHT22;3885;51.474;-2.576;2023-07-31T09:56:42;19.00;99.90
7686;DHT22;3885;51.474;-2.576;2023-07-31T09:59:11;19.10;99.90
7686;DHT22;3885;51.474;-2.576;2023-07-31T10:01:39;19.20;99.90
7686;DHT22;3885;51.474;-2.576;2023-07-31T10:04:08;19.20;99.90
7686;DHT22;3885;51.474;-2.576;2023-07-31T10:06:36;19.20;99.90
7686;DHT22;3885;51.474;-2.576;2023-07-31T10:09:05;19.10;99.90
7686;DHT22;3885;51.474;-2.576;2023-07-31T10:11:36;19.10;99.90
7686;DHT22;3885;51.474;-2.576;2023-07-31T10:14:07;19.00;99.90
7686;DHT22;3885;51.474;-2.576;2023-07-31T10:16:37;18.90;99.90
7686;DHT22;3885;51.474;-2.576;2023-07-31T10:19:05;18.80;99.90
7686;DHT22;3885;51.474;-2.576;2023-07-31T10:21:34;18.80;99.90
7686;DHT22;3885;51.474;-2.576;2023-07-31T10:24:04;18.70;99.90
7686;DHT22;3885;51.474;-2.576;2023-07-31T10:26:32;18.60;99.90
7686;DHT22;3885;51.474;-2.576;2023-07-31T10:28:59;18.50;99.90
7686;DHT22;3885;51.474;-2.576;2023-07-31T10:31:28;18.50;99.90
7686;DHT22;3885;51.474;-2.576;2023-07-31T10:33:57;18.60;99.90
7686;DHT22;3885;51.474;-2.576;2023-07-31T10:36:25;18.70;99.90
7686;DHT22;3885;51.474;-2.576;2023-07-31T10:38:52;18.70;99.90
7686;DHT22;3885;51.474;-2.576;2023-07-31T10:41:28;18.80;99.90
7686;DHT22;3885;51.474;-2.576;2023-07-31T10:43:57;18.70;99.90
7686;DHT22;3885;51.474;-2.576;2023-07-31T10:46:24;18.70;99.90
7686;DHT22;3885;51.474;-2.576;2023-07-31T10:48:59;18.80;99.90
7686;DHT22;3885;51.474;-2.576;2023-07-31T10:51:33;18.70;99.90
7686;DHT22;3885;51.474;-2.576;2023-07-31T10:54:11;18.50;99.90
7686;DHT22;3885;51.474;-2.576;2023-07-31T10:56:38;18.60;99.90
7686;DHT22;3885;51.474;-2.576;2023-07-31T10:59:05;18.60;99.90
7686;DHT22;3885;51.474;-2.576;2023-07-31T11:01:56;18.50;99.90
7686;DHT22;3885;51.474;-2.576;2023-07-31T11:04:26;18.40;99.90
7686;DHT22;3885;51.474;-2.576;2023-07-31T11:06:57;18.20;99.90
7686;DHT22;3885;51.474;-2.576;2023-07-31T11:09:27;18.30;99.90
7686;DHT22;3885;51.474;-2.576;2023-07-31T11:11:56;18.30;99.90
7686;DHT22;3885;51.474;-2.576;2023-07-31T11:14:23;18.20;99.90
7686;DHT22;3885;51.474;-2.576;2023-07-31T11:19:21;18.20;99.90
7686;DHT22;3885;51.474;-2.576;2023-07-31T11:21:51;18.20;99.90
7686;DHT22;3885;51.474;-2.576;2023-07-31T11:24:18;18.10;99.90
7686;DHT22;3885;51.474;-2.576;2023-07-31T11:26:50;18.10;99.90
7686;DHT22;3885;51.474;-2.576;2023-07-31T11:29:17;18.10;99.90
7686;DHT22;3885;51.474;-2.576;2023-07-31T11:31:45;18.10;99.90
7686;DHT22;3885;51.474;-2.576;2023-07-31T11:34:12;18.10;99.90
7686;DHT22;3885;51.474;-2.576;2023-07-31T11:36:39;18.10;99.90
7686;DHT22;3885;51.474;-2.576;2023-07-31T11:39:08;18.10;99.90
7686;DHT22;3885;51.474;-2.576;2023-07-31T11:41:36;18.00;99.90
7686;DHT22;3885;51.474;-2.576;2023-07-31T11:46:30;17.90;99.90
7686;DHT22;3885;51.474;-2.576;2023-07-31T11:48:59;17.90;99.90
7686;DHT22;3885;51.474;-2.576;2023-07-31T11:51:27;17.80;99.90
7686;DHT22;3885;51.474;-2.576;2023-07-31T11:53:57;17.80;99.90
7686;DHT22;3885;51.474;-2.576;2023-07-31T11:56:26;17.80;99.90
7686;DHT22;3885;51.474;-2.576;2023-07-31T11:58:57;17.80;99.90
7686;DHT22;3885;51.474;-2.576;2023-07-31T12:01:24;17.80;99.90
7686;DHT22;3885;51.474;-2.576;2023-07-31T12:03:53;17.70;99.90
7686;DHT22;3885;51.474;-2.576;2023-07-31T12:06:20;17.70;99.90
7686;DHT22;3885;51.474;-2.576;2023-07-31T12:08:47;17.70;99.90
7686;DHT22;3885;51.474;-2.576;2023-07-31T12:11:14;17.70;99.90
7686;DHT22;3885;51.474;-2.576;2023-07-31T12:13:44;17.60;99.90
7686;DHT22;3885;51.474;-2.576;2023-07-31T12:16:11;17.50;99.90
7686;DHT22;3885;51.474;-2.576;2023-07-31T12:18:39;17.50;99.90
7686;DHT22;3885;51.474;-2.576;2023-07-31T12:21:08;17.50;99.90
7686;DHT22;3885;51.474;-2.576;2023-07-31T12:23:37;17.40;99.90
7686;DHT22;3885;51.474;-2.576;2023-07-31T12:26:07;17.50;99.90
7686;DHT22;3885;51.474;-2.576;2023-07-31T12:28:37;17.50;99.90
7686;DHT22;3885;51.474;-2.576;2023-07-31T12:31:08;17.50;99.90
7686;DHT22;3885;51.474;-2.576;2023-07-31T12:33:36;17.40;99.90
7686;DHT22;3885;51.474;-2.576;2023-07-31T12:36:07;17.40;99.90
7686;DHT22;3885;51.474;-2.576;2023-07-31T12:38:34;17.40;99.90
7686;DHT22;3885;51.474;-2.576;2023-07-31T12:41:01;17.30;99.90
7686;DHT22;3885;51.474;-2.576;2023-07-31T12:43:28;17.20;99.90
7686;DHT22;3885;51.474;-2.576;2023-07-31T12:45:55;17.20;99.90
7686;DHT22;3885;51.474;-2.576;2023-07-31T12:48:24;17.30;99.90
7686;DHT22;3885;51.474;-2.576;2023-07-31T12:50:51;17.30;99.90
7686;DHT22;3885;51.474;-2.576;2023-07-31T12:53:18;17.30;99.90
7686;DHT22;3885;51.474;-2.576;2023-07-31T12:55:44;17.30;99.90
7686;DHT22;3885;51.474;-2.576;2023-07-31T12:58:11;17.20;99.90
7686;DHT22;3885;51.474;-2.576;2023-07-31T13:00:38;17.10;99.90
7686;DHT22;3885;51.474;-2.576;2023-07-31T13:03:05;17.10;99.90
7686;DHT22;3885;51.474;-2.576;2023-07-31T13:05:34;17.10;99.90
7686;DHT22;3885;51.474;-2.576;2023-07-31T13:08:01;17.20;99.90
7686;DHT22;3885;51.474;-2.576;2023-07-31T13:10:28;17.20;99.90
7686;DHT22;3885;51.474;-2.576;2023-07-31T13:12:55;17.40;99.90
7686;DHT22;3885;51.474;-2.576;2023-07-31T13:15:22;17.50;99.90
7686;DHT22;3885;51.474;-2.576;2023-07-31T13:20:16;17.70;99.90
7686;DHT22;3885;51.474;-2.576;2023-07-31T13:22:45;17.80;99.90
7686;DHT22;3885;51.474;-2.576;2023-07-31T13:25:12;17.80;99.90
7686;DHT22;3885;51.474;-2.576;2023-07-31T13:27:39;17.90;99.90
7686;DHT22;3885;51.474;-2.576;2023-07-31T13:30:07;18.00;99.90
7686;DHT22;3885;51.474;-2.576;2023-07-31T13:32:34;18.00;99.90
7686;DHT22;3885;51.474;-2.576;2023-07-31T13:35:04;18.00;99.90
7686;DHT22;3885;51.474;-2.576;2023-07-31T13:37:31;18.10;99.90
7686;DHT22;3885;51.474;-2.576;2023-07-31T13:40:00;18.10;99.90
7686;DHT22;3885;51.474;-2.576;2023-07-31T13:42:27;18.20;99.90
7686;DHT22;3885;51.474;-2.576;2023-07-31T13:44:54;18.30;99.90
7686;DHT22;3885;51.474;-2.576;2023-07-31T13:47:21;18.40;99.90
7686;DHT22;3885;51.474;-2.576;2023-07-31T13:49:48;18.40;99.90
7686;DHT22;3885;51.474;-2.576;2023-07-31T13:52:15;18.50;99.90
7686;DHT22;3885;51.474;-2.576;2023-07-31T13:54:42;18.70;99.90
7686;DHT22;3885;51.474;-2.576;2023-07-31T13:57:10;18.70;99.90
7686;DHT22;3885;51.474;-2.576;2023-07-31T13:59:37;18.80;99.90
7686;DHT22;3885;51.474;-2.576;2023-07-31T14:02:04;18.80;99.90
7686;DHT22;3885;51.474;-2.576;2023-07-31T14:04:31;19.00;99.90
7686;DHT22;3885;51.474;-2.576;2023-07-31T14:06:58;19.00;99.90
7686;DHT22;3885;51.474;-2.576;2023-07-31T14:09:25;19.10;99.90
7686;DHT22;3885;51.474;-2.576;2023-07-31T14:11:54;19.20;99.90
7686;DHT22;3885;51.474;-2.576;2023-07-31T14:14:22;19.40;99.90
7686;DHT22;3885;51.474;-2.576;2023-07-31T14:16:49;19.30;99.90
7686;DHT22;3885;51.474;-2.576;2023-07-31T14:19:16;19.30;99.90
7686;DHT22;3885;51.474;-2.576;2023-07-31T14:21:43;19.30;99.90
7686;DHT22;3885;51.474;-2.576;2023-07-31T14:24:09;19.50;99.90
7686;DHT22;3885;51.474;-2.576;2023-07-31T14:26:36;19.60;99.90
7686;DHT22;3885;51.474;-2.576;2023-07-31T14:29:03;19.60;99.90
7686;DHT22;3885;51.474;-2.576;2023-07-31T14:31:31;19.50;99.90
7686;DHT22;3885;51.474;-2.576;2023-07-31T14:33:58;19.20;99.90
7686;DHT22;3885;51.474;-2.576;2023-07-31T14:38:52;19.30;99.90
7686;DHT22;3885;51.474;-2.576;2023-07-31T14:41:19;19.40;99.90
7686;DHT22;3885;51.474;-2.576;2023-07-31T14:43:46;19.50;99.90
7686;DHT22;3885;51.474;-2.576;2023-07-31T14:46:13;19.50;99.90
7686;DHT22;3885;51.474;-2.576;2023-07-31T14:48:41;19.60;99.90
7686;DHT22;3885;51.474;-2.576;2023-07-31T14:51:08;19.80;99.90
7686;DHT22;3885;51.474;-2.576;2023-07-31T14:53:35;19.80;99.90
7686;DHT22;3885;51.474;-2.576;2023-07-31T14:56:02;19.80;99.90
7686;DHT22;3885;51.474;-2.576;2023-07-31T14:58:29;19.80;99.90
7686;DHT22;3885;51.474;-2.576;2023-07-31T15:00:56;19.90;99.90
7686;DHT22;3885;51.474;-2.576;2023-07-31T15:03:23;20.00;99.90
7686;DHT22;3885;51.474;-2.576;2023-07-31T15:05:53;20.00;99.90
7686;DHT22;3885;51.474;-2.576;2023-07-31T15:08:20;20.10;99.90
7686;DHT22;3885;51.474;-2.576;2023-07-31T15:10:47;20.00;99.90
7686;DHT22;3885;51.474;-2.576;2023-07-31T15:13:13;20.00;99.90
7686;DHT22;3885;51.474;-2.576;2023-07-31T15:15:40;20.00;99.90
7686;DHT22;3885;51.474;-2.576;2023-07-31T15:18:07;20.10;99.90
7686;DHT22;3885;51.474;-2.576;2023-07-31T15:20:34;20.10;99.90
7686;DHT22;3885;51.474;-2.576;2023-07-31T15:23:02;20.10;99.90
7686;DHT22;3885;51.474;-2.576;2023-07-31T15:25:29;20.00;99.90
7686;DHT22;3885;51.474;-2.576;2023-07-31T15:27:56;19.90;99.90
7686;DHT22;3885;51.474;-2.576;2023-07-31T15:30:24;19.90;99.90
7686;DHT22;3885;51.474;-2.576;2023-07-31T15:32:52;20.00;99.90
7686;DHT22;3885;51.474;-2.576;2023-07-31T15:35:19;20.00;99.90
7686;DHT22;3885;51.474;-2.576;2023-07-31T15:37:46;19.50;99.90
7686;DHT22;3885;51.474;-2.576;2023-07-31T15:40:15;19.40;99.90
7686;DHT22;3885;51.474;-2.576;2023-07-31T15:42:42;19.50;99.90
7686;DHT22;3885;51.474;-2.576;2023-07-31T15:45:09;19.50;99.90
7686;DHT22;3885;51.474;-2.576;2023-07-31T15:47:36;19.60;99.90
7686;DHT22;3885;51.474;-2.576;2023-07-31T15:50:05;19.70;99.90
7686;DHT22;3885;51.474;-2.576;2023-07-31T15:52:32;19.60;99.90
7686;DHT22;3885;51.474;-2.576;2023-07-31T15:54:59;19.60;99.90
7686;DHT22;3885;51.474;-2.576;2023-07-31T15:57:27;19.60;99.90
7686;DHT22;3885;51.474;-2.576;2023-07-31T15:59:54;19.70;99.90
7686;DHT22;3885;51.474;-2.576;2023-07-31T16:02:21;19.80;99.90
7686;DHT22;3885;51.474;-2.576;2023-07-31T16:04:48;20.00;99.90
7686;DHT22;3885;51.474;-2.576;2023-07-31T16:07:15;19.90;99.90
7686;DHT22;3885;51.474;-2.576;2023-07-31T16:09:41;19.90;99.90
7686;DHT22;3885;51.474;-2.576;2023-07-31T16:12:08;20.00;99.90
7686;DHT22;3885;51.474;-2.576;2023-07-31T16:14:38;20.40;99.90